sensor_id;sensor_type;location;lat;lon;timestamp;pressure;altitude;pressure_sealevel;temperature
35582;BMP180;21687;48.900;9.188;2023-10-13T00:00:34;98520.00;;;16.40
35582;BMP180;21687;48.900;9.188;2023-10-13T00:03:05;98538.00;;;16.40
35582;BMP180;21687;48.900;9.188;2023-10-13T00:05:32;98535.00;;;16.30
35582;BMP180;21687;48.900;9.188;2023-10-13T00:08:04;98526.00;;;16.30
35582;BMP180;21687;48.900;9.188;2023-10-13T00:10:31;98518.00;;;16.30
35582;BMP180;21687;48.900;9.188;2023-10-13T00:12:57;98519.00;;;16.20
35582;BMP180;21687;48.900;9.188;2023-10-13T00:15:41;98518.00;;;16.10
35582;BMP180;21687;48.900;9.188;2023-10-13T00:18:28;98508.00;;;15.90
35582;BMP180;21687;48.900;9.188;2023-10-13T00:21:08;98509.00;;;15.80
35582;BMP180;21687;48.900;9.188;2023-10-13T00:23:45;98510.00;;;15.70
35582;BMP180;21687;48.900;9.188;2023-10-13T00:26:24;98505.00;;;15.60
35582;BMP180;21687;48.900;9.188;2023-10-13T00:28:54;98509.00;;;15.50
35582;BMP180;21687;48.900;9.188;2023-10-13T00:31:37;98503.00;;;15.40
35582;BMP180;21687;48.900;9.188;2023-10-13T00:34:05;98512.00;;;15.30
35582;BMP180;21687;48.900;9.188;2023-10-13T00:36:52;98498.00;;;15.10
35582;BMP180;21687;48.900;9.188;2023-10-13T00:39:42;98502.00;;;15.00
35582;BMP180;21687;48.900;9.188;2023-10-13T00:42:13;98494.00;;;15.00
35582;BMP180;21687;48.900;9.188;2023-10-13T00:44:47;98487.00;;;15.00
35582;BMP180;21687;48.900;9.188;2023-10-13T00:47:17;98497.00;;;14.90
35582;BMP180;21687;48.900;9.188;2023-10-13T00:50:05;98494.00;;;14.80
35582;BMP180;21687;48.900;9.188;2023-10-13T00:52:32;98497.00;;;14.70
35582;BMP180;21687;48.900;9.188;2023-10-13T00:55:01;98503.00;;;14.70
35582;BMP180;21687;48.900;9.188;2023-10-13T00:57:28;98496.00;;;14.70
35582;BMP180;21687;48.900;9.188;2023-10-13T00:59:57;98498.00;;;14.70
35582;BMP180;21687;48.900;9.188;2023-10-13T01:02:24;98508.00;;;14.70
35582;BMP180;21687;48.900;9.188;2023-10-13T01:05:06;98507.00;;;14.70
35582;BMP180;21687;48.900;9.188;2023-10-13T01:07:36;98507.00;;;14.60
35582;BMP180;21687;48.900;9.188;2023-10-13T01:10:10;98503.00;;;14.70
35582;BMP180;21687;48.900;9.188;2023-10-13T01:12:40;98496.00;;;14.70
35582;BMP180;21687;48.900;9.188;2023-10-13T01:15:09;98492.00;;;14.60
35582;BMP180;21687;48.900;9.188;2023-10-13T01:17:37;98486.00;;;14.50
35582;BMP180;21687;48.900;9.188;2023-10-13T01:20:04;98491.00;;;14.50
35582;BMP180;21687;48.900;9.188;2023-10-13T01:22:31;98485.00;;;14.40
35582;BMP180;21687;48.900;9.188;2023-10-13T01:24:58;98490.00;;;14.40
35582;BMP180;21687;48.900;9.188;2023-10-13T01:27:37;98482.00;;;14.30
35582;BMP180;21687;48.900;9.188;2023-10-13T01:30:07;98487.00;;;14.20
35582;BMP180;21687;48.900;9.188;2023-10-13T01:32:49;98481.00;;;14.10
35582;BMP180;21687;48.900;9.188;2023-10-13T01:35:17;98471.00;;;14.10
35582;BMP180;21687;48.900;9.188;2023-10-13T01:37:45;98472.00;;;14.00
35582;BMP180;21687;48.900;9.188;2023-10-13T01:40:12;98477.00;;;14.00
35582;BMP180;21687;48.900;9.188;2023-10-13T01:42:45;98473.00;;;13.90
35582;BMP180;21687;48.900;9.188;2023-10-13T01:45:12;98469.00;;;13.90
35582;BMP180;21687;48.900;9.188;2023-10-13T01:47:40;98470.00;;;13.80
35582;BMP180;21687;48.900;9.188;2023-10-13T01:50:07;98480.00;;;13.80
35582;BMP180;21687;48.900;9.188;2023-10-13T01:52:47;98475.00;;;13.80
35582;BMP180;21687;48.900;9.188;2023-10-13T01:55:14;98476.00;;;13.70
35582;BMP180;21687;48.900;9.188;2023-10-13T01:57:40;98463.00;;;13.60
35582;BMP180;21687;48.900;9.188;2023-10-13T02:00:09;98463.00;;;13.60
35582;BMP180;21687;48.900;9.188;2023-10-13T02:02:45;98462.00;;;13.60
35582;BMP180;21687;48.900;9.188;2023-10-13T02:05:16;98457.00;;;13.60
35582;BMP180;21687;48.900;9.188;2023-10-13T02:07:43;98460.00;;;13.60
35582;BMP180;21687;48.900;9.188;2023-10-13T02:10:12;98453.00;;;13.60
35582;BMP180;21687;48.900;9.188;2023-10-13T02:12:39;98444.00;;;13.50
35582;BMP180;21687;48.900;9.188;2023-10-13T02:15:12;98446.00;;;13.60
35582;BMP180;21687;48.900;9.188;2023-10-13T02:17:47;98445.00;;;13.70
35582;BMP180;21687;48.900;9.188;2023-10-13T02:20:17;98447.00;;;13.80
35582;BMP180;21687;48.900;9.188;2023-10-13T02:22:56;98434.00;;;13.80
35582;BMP180;21687;48.900;9.188;2023-10-13T02:25:23;98425.00;;;14.00
35582;BMP180;21687;48.900;9.188;2023-10-13T02:28:02;98433.00;;;13.90
35582;BMP180;21687;48.900;9.188;2023-10-13T02:30:28;98416.00;;;14.00
35582;BMP180;21687;48.900;9.188;2023-10-13T02:32:56;98422.00;;;14.10
35582;BMP180;21687;48.900;9.188;2023-10-13T02:35:23;98414.00;;;14.20
35582;BMP180;21687;48.900;9.188;2023-10-13T02:37:56;98415.00;;;14.30
35582;BMP180;21687;48.900;9.188;2023-10-13T02:40:25;98412.00;;;14.30
35582;BMP180;21687;48.900;9.188;2023-10-13T02:42:51;98402.00;;;14.40
35582;BMP180;21687;48.900;9.188;2023-10-13T02:45:18;98406.00;;;14.40
35582;BMP180;21687;48.900;9.188;2023-10-13T02:47:49;98407.00;;;14.40
35582;BMP180;21687;48.900;9.188;2023-10-13T02:50:35;98404.00;;;14.40
35582;BMP180;21687;48.900;9.188;2023-10-13T02:53:05;98399.00;;;14.30
35582;BMP180;21687;48.900;9.188;2023-10-13T02:55:48;98393.00;;;14.30
35582;BMP180;21687;48.900;9.188;2023-10-13T02:58:14;98395.00;;;14.20
35582;BMP180;21687;48.900;9.188;2023-10-13T03:00:41;98394.00;;;14.20
35582;BMP180;21687;48.900;9.188;2023-10-13T03:03:07;98388.00;;;14.20
35582;BMP180;21687;48.900;9.188;2023-10-13T03:05:37;98398.00;;;14.10
35582;BMP180;21687;48.900;9.188;2023-10-13T03:08:06;98380.00;;;14.10
35582;BMP180;21687;48.900;9.188;2023-10-13T03:10:32;98390.00;;;14.00
35582;BMP180;21687;48.900;9.188;2023-10-13T03:12:59;98397.00;;;14.00
35582;BMP180;21687;48.900;9.188;2023-10-13T03:15:26;98397.00;;;13.90
35582;BMP180;21687;48.900;9.188;2023-10-13T03:17:57;98396.00;;;13.90
35582;BMP180;21687;48.900;9.188;2023-10-13T03:20:27;98390.00;;;13.80
35582;BMP180;21687;48.900;9.188;2023-10-13T03:23:00;98392.00;;;14.00
35582;BMP180;21687;48.900;9.188;2023-10-13T03:25:26;98386.00;;;13.80
35582;BMP180;21687;48.900;9.188;2023-10-13T03:28:03;98393.00;;;13.90
35582;BMP180;21687;48.900;9.188;2023-10-13T03:30:33;98389.00;;;13.80
35582;BMP180;21687;48.900;9.188;2023-10-13T03:33:05;98388.00;;;13.70
35582;BMP180;21687;48.900;9.188;2023-10-13T03:35:51;98382.00;;;13.70
35582;BMP180;21687;48.900;9.188;2023-10-13T03:38:25;98379.00;;;13.60
35582;BMP180;21687;48.900;9.188;2023-10-13T03:40:54;98381.00;;;13.60
35582;BMP180;21687;48.900;9.188;2023-10-13T03:43:49;98380.00;;;13.60
35582;BMP180;21687;48.900;9.188;2023-10-13T03:46:35;98377.00;;;13.60
35582;BMP180;21687;48.900;9.188;2023-10-13T03:49:02;98378.00;;;13.70
35582;BMP180;21687;48.900;9.188;2023-10-13T03:51:32;98383.00;;;13.70
35582;BMP180;21687;48.900;9.188;2023-10-13T03:53:59;98374.00;;;13.70
35582;BMP180;21687;48.900;9.188;2023-10-13T03:56:33;98367.00;;;13.70
35582;BMP180;21687;48.900;9.188;2023-10-13T03:59:06;98383.00;;;13.60
35582;BMP180;21687;48.900;9.188;2023-10-13T04:01:36;98385.00;;;13.60
35582;BMP180;21687;48.900;9.188;2023-10-13T04:04:09;98389.00;;;13.60
35582;BMP180;21687;48.900;9.188;2023-10-13T04:06:41;98380.00;;;13.60
35582;BMP180;21687;48.900;9.188;2023-10-13T04:09:22;98384.00;;;13.60
35582;BMP180;21687;48.900;9.188;2023-10-13T04:11:58;98378.00;;;13.60
35582;BMP180;21687;48.900;9.188;2023-10-13T04:14:31;98387.00;;;13.50
35582;BMP180;21687;48.900;9.188;2023-10-13T04:17:16;98388.00;;;13.40
35582;BMP180;21687;48.900;9.188;2023-10-13T04:19:50;98387.00;;;13.20
35582;BMP180;21687;48.900;9.188;2023-10-13T04:25:27;98376.00;;;13.10
35582;BMP180;21687;48.900;9.188;2023-10-13T04:28:25;98376.00;;;12.90
35582;BMP180;21687;48.900;9.188;2023-10-13T04:31:01;98371.00;;;12.80
35582;BMP180;21687;48.900;9.188;2023-10-13T04:33:51;98373.00;;;12.80
35582;BMP180;21687;48.900;9.188;2023-10-13T04:36:27;98366.00;;;12.70
35582;BMP180;21687;48.900;9.188;2023-10-13T04:38:58;98361.00;;;12.60
35582;BMP180;21687;48.900;9.188;2023-10-13T04:41:34;98360.00;;;12.50
35582;BMP180;21687;48.900;9.188;2023-10-13T04:44:29;98359.00;;;12.50
35582;BMP180;21687;48.900;9.188;2023-10-13T04:46:57;98359.00;;;12.50
35582;BMP180;21687;48.900;9.188;2023-10-13T04:49:28;98358.00;;;12.40
35582;BMP180;21687;48.900;9.188;2023-10-13T04:52:10;98344.00;;;12.30
35582;BMP180;21687;48.900;9.188;2023-10-13T04:54:42;98341.00;;;12.40
35582;BMP180;21687;48.900;9.188;2023-10-13T04:57:16;98347.00;;;12.30
35582;BMP180;21687;48.900;9.188;2023-10-13T04:59:50;98332.00;;;12.30
35582;BMP180;21687;48.900;9.188;2023-10-13T05:02:35;98343.00;;;12.30
35582;BMP180;21687;48.900;9.188;2023-10-13T05:05:07;98334.00;;;12.20
35582;BMP180;21687;48.900;9.188;2023-10-13T05:07:52;98335.00;;;12.20
35582;BMP180;21687;48.900;9.188;2023-10-13T05:10:37;98333.00;;;12.20
35582;BMP180;21687;48.900;9.188;2023-10-13T05:13:22;98333.00;;;12.20
35582;BMP180;21687;48.900;9.188;2023-10-13T05:16:07;98330.00;;;12.10
35582;BMP180;21687;48.900;9.188;2023-10-13T05:18:52;98329.00;;;12.20
35582;BMP180;21687;48.900;9.188;2023-10-13T05:21:37;98322.00;;;12.20
35582;BMP180;21687;48.900;9.188;2023-10-13T05:24:23;98325.00;;;12.30
35582;BMP180;21687;48.900;9.188;2023-10-13T05:27:08;98323.00;;;12.60
35582;BMP180;21687;48.900;9.188;2023-10-13T05:29:53;98319.00;;;12.70
35582;BMP180;21687;48.900;9.188;2023-10-13T05:32:40;98319.00;;;12.90
35582;BMP180;21687;48.900;9.188;2023-10-13T05:35:25;98318.00;;;13.00
35582;BMP180;21687;48.900;9.188;2023-10-13T05:38:10;98320.00;;;13.20
35582;BMP180;21687;48.900;9.188;2023-10-13T05:41:02;98318.00;;;13.40
35582;BMP180;21687;48.900;9.188;2023-10-13T05:43:47;98311.00;;;13.50
35582;BMP180;21687;48.900;9.188;2023-10-13T05:46:33;98320.00;;;13.70
35582;BMP180;21687;48.900;9.188;2023-10-13T05:49:07;98314.00;;;13.80
35582;BMP180;21687;48.900;9.188;2023-10-13T05:51:33;98314.00;;;14.10
35582;BMP180;21687;48.900;9.188;2023-10-13T05:54:06;98311.00;;;14.20
35582;BMP180;21687;48.900;9.188;2023-10-13T05:56:42;98318.00;;;14.60
35582;BMP180;21687;48.900;9.188;2023-10-13T05:59:27;98320.00;;;14.70
35582;BMP180;21687;48.900;9.188;2023-10-13T06:02:14;98323.00;;;14.80
35582;BMP180;21687;48.900;9.188;2023-10-13T06:05:03;98335.00;;;14.90
35582;BMP180;21687;48.900;9.188;2023-10-13T06:07:48;98333.00;;;14.90
35582;BMP180;21687;48.900;9.188;2023-10-13T06:10:33;98332.00;;;15.10
35582;BMP180;21687;48.900;9.188;2023-10-13T06:13:18;98335.00;;;15.20
35582;BMP180;21687;48.900;9.188;2023-10-13T06:16:10;98335.00;;;15.30
35582;BMP180;21687;48.900;9.188;2023-10-13T06:18:55;98334.00;;;15.30
35582;BMP180;21687;48.900;9.188;2023-10-13T06:21:41;98330.00;;;15.60
35582;BMP180;21687;48.900;9.188;2023-10-13T06:24:26;98330.00;;;15.70
35582;BMP180;21687;48.900;9.188;2023-10-13T06:27:11;98337.00;;;15.80
35582;BMP180;21687;48.900;9.188;2023-10-13T06:29:57;98347.00;;;15.90
35582;BMP180;21687;48.900;9.188;2023-10-13T06:32:24;98347.00;;;15.90
35582;BMP180;21687;48.900;9.188;2023-10-13T06:34:54;98344.00;;;16.00
35582;BMP180;21687;48.900;9.188;2023-10-13T06:37:40;98345.00;;;16.10
35582;BMP180;21687;48.900;9.188;2023-10-13T06:40:12;98347.00;;;16.20
35582;BMP180;21687;48.900;9.188;2023-10-13T06:42:57;98346.00;;;16.20
35582;BMP180;21687;48.900;9.188;2023-10-13T06:45:48;98337.00;;;16.20
35582;BMP180;21687;48.900;9.188;2023-10-13T06:48:27;98336.00;;;16.30
35582;BMP180;21687;48.900;9.188;2023-10-13T06:50:53;98337.00;;;16.30
35582;BMP180;21687;48.900;9.188;2023-10-13T06:53:22;98339.00;;;16.30
35582;BMP180;21687;48.900;9.188;2023-10-13T06:55:48;98335.00;;;16.30
35582;BMP180;21687;48.900;9.188;2023-10-13T06:58:18;98337.00;;;16.30
35582;BMP180;21687;48.900;9.188;2023-10-13T07:00:50;98328.00;;;16.30
35582;BMP180;21687;48.900;9.188;2023-10-13T07:03:23;98335.00;;;16.30
35582;BMP180;21687;48.900;9.188;2023-10-13T07:05:52;98339.00;;;16.20
35582;BMP180;21687;48.900;9.188;2023-10-13T07:08:18;98346.00;;;16.20
35582;BMP180;21687;48.900;9.188;2023-10-13T07:10:55;98347.00;;;16.20
35582;BMP180;21687;48.900;9.188;2023-10-13T07:13:30;98341.00;;;16.30
35582;BMP180;21687;48.900;9.188;2023-10-13T07:16:00;98341.00;;;16.30
35582;BMP180;21687;48.900;9.188;2023-10-13T07:18:31;98338.00;;;16.30
35582;BMP180;21687;48.900;9.188;2023-10-13T07:21:05;98337.00;;;16.40
35582;BMP180;21687;48.900;9.188;2023-10-13T07:23:38;98339.00;;;16.40
35582;BMP180;21687;48.900;9.188;2023-10-13T07:26:06;98347.00;;;16.40
35582;BMP180;21687;48.900;9.188;2023-10-13T07:28:34;98337.00;;;16.50
35582;BMP180;21687;48.900;9.188;2023-10-13T07:31:13;98350.00;;;16.50
35582;BMP180;21687;48.900;9.188;2023-10-13T07:33:39;98349.00;;;16.60
35582;BMP180;21687;48.900;9.188;2023-10-13T07:36:09;98344.00;;;16.70
35582;BMP180;21687;48.900;9.188;2023-10-13T07:38:54;98344.00;;;16.70
35582;BMP180;21687;48.900;9.188;2023-10-13T07:41:47;98340.00;;;16.90
35582;BMP180;21687;48.900;9.188;2023-10-13T07:44:19;98337.00;;;17.00
35582;BMP180;21687;48.900;9.188;2023-10-13T07:46:55;98338.00;;;17.10
35582;BMP180;21687;48.900;9.188;2023-10-13T07:49:32;98336.00;;;17.30
35582;BMP180;21687;48.900;9.188;2023-10-13T07:52:05;98335.00;;;17.30
35582;BMP180;21687;48.900;9.188;2023-10-13T07:54:50;98337.00;;;17.30
35582;BMP180;21687;48.900;9.188;2023-10-13T07:57:36;98337.00;;;17.60
35582;BMP180;21687;48.900;9.188;2023-10-13T08:00:02;98339.00;;;17.80
35582;BMP180;21687;48.900;9.188;2023-10-13T08:02:57;98335.00;;;17.90
35582;BMP180;21687;48.900;9.188;2023-10-13T08:05:35;98335.00;;;18.00
35582;BMP180;21687;48.900;9.188;2023-10-13T08:08:20;98332.00;;;18.10
35582;BMP180;21687;48.900;9.188;2023-10-13T08:10:47;98328.00;;;18.10
35582;BMP180;21687;48.900;9.188;2023-10-13T08:13:14;98329.00;;;18.20
35582;BMP180;21687;48.900;9.188;2023-10-13T08:15:43;98326.00;;;18.20
35582;BMP180;21687;48.900;9.188;2023-10-13T08:18:17;98320.00;;;18.30
35582;BMP180;21687;48.900;9.188;2023-10-13T08:21:00;98322.00;;;18.40
35582;BMP180;21687;48.900;9.188;2023-10-13T08:23:29;98320.00;;;18.60
35582;BMP180;21687;48.900;9.188;2023-10-13T08:26:15;98318.00;;;18.70
35582;BMP180;21687;48.900;9.188;2023-10-13T08:29:00;98319.00;;;18.80
35582;BMP180;21687;48.900;9.188;2023-10-13T08:31:49;98312.00;;;18.90
35582;BMP180;21687;48.900;9.188;2023-10-13T08:34:31;98306.00;;;19.00
35582;BMP180;21687;48.900;9.188;2023-10-13T08:37:06;98304.00;;;19.10
35582;BMP180;21687;48.900;9.188;2023-10-13T08:39:59;98306.00;;;19.20
35582;BMP180;21687;48.900;9.188;2023-10-13T08:42:35;98306.00;;;19.40
35582;BMP180;21687;48.900;9.188;2023-10-13T08:45:09;98300.00;;;19.50
35582;BMP180;21687;48.900;9.188;2023-10-13T08:47:53;98303.00;;;19.80
35582;BMP180;21687;48.900;9.188;2023-10-13T08:50:35;98299.00;;;19.80
35582;BMP180;21687;48.900;9.188;2023-10-13T08:53:32;98303.00;;;20.00
35582;BMP180;21687;48.900;9.188;2023-10-13T08:56:13;98295.00;;;20.10
35582;BMP180;21687;48.900;9.188;2023-10-13T08:58:49;98286.00;;;20.30
35582;BMP180;21687;48.900;9.188;2023-10-13T09:04:12;98294.00;;;20.80
35582;BMP180;21687;48.900;9.188;2023-10-13T09:09:46;98286.00;;;21.20
35582;BMP180;21687;48.900;9.188;2023-10-13T09:12:16;98290.00;;;21.30
35582;BMP180;21687;48.900;9.188;2023-10-13T09:14:53;98280.00;;;21.40
35582;BMP180;21687;48.900;9.188;2023-10-13T09:17:32;98279.00;;;21.40
35582;BMP180;21687;48.900;9.188;2023-10-13T09:20:07;98281.00;;;21.60
35582;BMP180;21687;48.900;9.188;2023-10-13T09:22:54;98288.00;;;21.60
35582;BMP180;21687;48.900;9.188;2023-10-13T09:25:30;98293.00;;;21.80
35582;BMP180;21687;48.900;9.188;2023-10-13T09:28:02;98278.00;;;21.80
35582;BMP180;21687;48.900;9.188;2023-10-13T09:30:43;98271.00;;;21.90
35582;BMP180;21687;48.900;9.188;2023-10-13T09:33:10;98283.00;;;22.00
35582;BMP180;21687;48.900;9.188;2023-10-13T09:35:46;98279.00;;;22.10
35582;BMP180;21687;48.900;9.188;2023-10-13T09:38:16;98267.00;;;22.20
35582;BMP180;21687;48.900;9.188;2023-10-13T09:40:44;98271.00;;;22.20
35582;BMP180;21687;48.900;9.188;2023-10-13T09:43:19;98261.00;;;22.40
35582;BMP180;21687;48.900;9.188;2023-10-13T09:45:48;98260.00;;;22.50
35582;BMP180;21687;48.900;9.188;2023-10-13T09:48:45;98252.00;;;22.80
35582;BMP180;21687;48.900;9.188;2023-10-13T09:51:31;98249.00;;;22.90
35582;BMP180;21687;48.900;9.188;2023-10-13T09:56:47;98250.00;;;23.20
35582;BMP180;21687;48.900;9.188;2023-10-13T09:59:31;98247.00;;;23.50
35582;BMP180;21687;48.900;9.188;2023-10-13T10:02:01;98250.00;;;23.60
35582;BMP180;21687;48.900;9.188;2023-10-13T10:04:35;98247.00;;;23.70
35582;BMP180;21687;48.900;9.188;2023-10-13T10:07:25;98239.00;;;23.90
35582;BMP180;21687;48.900;9.188;2023-10-13T10:09:59;98240.00;;;24.00
35582;BMP180;21687;48.900;9.188;2023-10-13T10:12:56;98243.00;;;24.10
35582;BMP180;21687;48.900;9.188;2023-10-13T10:15:49;98231.00;;;24.20
35582;BMP180;21687;48.900;9.188;2023-10-13T10:18:24;98234.00;;;24.40
35582;BMP180;21687;48.900;9.188;2023-10-13T10:21:06;98231.00;;;24.40
35582;BMP180;21687;48.900;9.188;2023-10-13T10:23:37;98229.00;;;24.50
35582;BMP180;21687;48.900;9.188;2023-10-13T10:26:13;98238.00;;;24.50
35582;BMP180;21687;48.900;9.188;2023-10-13T10:28:46;98231.00;;;24.50
35582;BMP180;21687;48.900;9.188;2023-10-13T10:31:14;98228.00;;;24.50
35582;BMP180;21687;48.900;9.188;2023-10-13T10:33:43;98225.00;;;24.40
35582;BMP180;21687;48.900;9.188;2023-10-13T10:36:10;98227.00;;;24.30
35582;BMP180;21687;48.900;9.188;2023-10-13T10:38:57;98220.00;;;24.30
35582;BMP180;21687;48.900;9.188;2023-10-13T10:41:30;98223.00;;;24.20
35582;BMP180;21687;48.900;9.188;2023-10-13T10:44:12;98208.00;;;24.20
35582;BMP180;21687;48.900;9.188;2023-10-13T10:46:42;98203.00;;;24.20
35582;BMP180;21687;48.900;9.188;2023-10-13T10:49:19;98201.00;;;24.30
35582;BMP180;21687;48.900;9.188;2023-10-13T10:51:58;98195.00;;;24.40
35582;BMP180;21687;48.900;9.188;2023-10-13T10:54:27;98203.00;;;24.40
35582;BMP180;21687;48.900;9.188;2023-10-13T10:56:58;98192.00;;;24.40
35582;BMP180;21687;48.900;9.188;2023-10-13T10:59:37;98187.00;;;24.40
35582;BMP180;21687;48.900;9.188;2023-10-13T11:02:04;98195.00;;;24.40
35582;BMP180;21687;48.900;9.188;2023-10-13T11:04:32;98190.00;;;24.50
35582;BMP180;21687;48.900;9.188;2023-10-13T11:07:07;98194.00;;;24.50
35582;BMP180;21687;48.900;9.188;2023-10-13T11:09:36;98194.00;;;24.60
35582;BMP180;21687;48.900;9.188;2023-10-13T11:12:13;98176.00;;;24.70
35582;BMP180;21687;48.900;9.188;2023-10-13T11:14:49;98177.00;;;24.60
35582;BMP180;21687;48.900;9.188;2023-10-13T11:17:26;98168.00;;;24.70
35582;BMP180;21687;48.900;9.188;2023-10-13T11:20:11;98166.00;;;24.70
35582;BMP180;21687;48.900;9.188;2023-10-13T11:22:52;98163.00;;;24.90
35582;BMP180;21687;48.900;9.188;2023-10-13T11:25:26;98152.00;;;25.10
35582;BMP180;21687;48.900;9.188;2023-10-13T11:27:57;98161.00;;;25.20
35582;BMP180;21687;48.900;9.188;2023-10-13T11:30:32;98158.00;;;25.20
35582;BMP180;21687;48.900;9.188;2023-10-13T11:33:09;98152.00;;;25.10
35582;BMP180;21687;48.900;9.188;2023-10-13T11:35:37;98149.00;;;25.10
35582;BMP180;21687;48.900;9.188;2023-10-13T11:38:20;98154.00;;;25.00
35582;BMP180;21687;48.900;9.188;2023-10-13T11:41:03;98155.00;;;25.00
35582;BMP180;21687;48.900;9.188;2023-10-13T11:43:33;98151.00;;;24.90
35582;BMP180;21687;48.900;9.188;2023-10-13T11:46:12;98152.00;;;24.80
35582;BMP180;21687;48.900;9.188;2023-10-13T11:48:42;98145.00;;;24.80
35582;BMP180;21687;48.900;9.188;2023-10-13T11:51:15;98138.00;;;24.90
35582;BMP180;21687;48.900;9.188;2023-10-13T11:53:50;98134.00;;;25.10
35582;BMP180;21687;48.900;9.188;2023-10-13T11:56:20;98136.00;;;25.30
35582;BMP180;21687;48.900;9.188;2023-10-13T11:58:47;98135.00;;;25.50
35582;BMP180;21687;48.900;9.188;2023-10-13T12:01:14;98124.00;;;25.60
35582;BMP180;21687;48.900;9.188;2023-10-13T12:03:47;98128.00;;;25.70
35582;BMP180;21687;48.900;9.188;2023-10-13T12:06:34;98122.00;;;25.80
35582;BMP180;21687;48.900;9.188;2023-10-13T12:09:05;98115.00;;;26.00
35582;BMP180;21687;48.900;9.188;2023-10-13T12:11:38;98123.00;;;26.00
35582;BMP180;21687;48.900;9.188;2023-10-13T12:14:08;98116.00;;;26.00
35582;BMP180;21687;48.900;9.188;2023-10-13T12:16:52;98110.00;;;26.00
35582;BMP180;21687;48.900;9.188;2023-10-13T12:19:20;98100.00;;;26.10
35582;BMP180;21687;48.900;9.188;2023-10-13T12:21:53;98097.00;;;26.10
35582;BMP180;21687;48.900;9.188;2023-10-13T12:24:24;98094.00;;;26.20
35582;BMP180;21687;48.900;9.188;2023-10-13T12:27:06;98096.00;;;26.20
35582;BMP180;21687;48.900;9.188;2023-10-13T12:29:49;98091.00;;;26.30
35582;BMP180;21687;48.900;9.188;2023-10-13T12:32:15;98090.00;;;26.20
35582;BMP180;21687;48.900;9.188;2023-10-13T12:34:48;98084.00;;;26.20
35582;BMP180;21687;48.900;9.188;2023-10-13T12:37:42;98082.00;;;26.30
35582;BMP180;21687;48.900;9.188;2023-10-13T12:42:56;98073.00;;;26.30
35582;BMP180;21687;48.900;9.188;2023-10-13T12:45:41;98065.00;;;26.40
35582;BMP180;21687;48.900;9.188;2023-10-13T12:48:30;98063.00;;;26.30
35582;BMP180;21687;48.900;9.188;2023-10-13T12:51:17;98072.00;;;26.30
35582;BMP180;21687;48.900;9.188;2023-10-13T12:54:07;98069.00;;;26.40
35582;BMP180;21687;48.900;9.188;2023-10-13T12:56:47;98068.00;;;26.40
35582;BMP180;21687;48.900;9.188;2023-10-13T12:59:13;98065.00;;;26.40
35582;BMP180;21687;48.900;9.188;2023-10-13T13:01:40;98062.00;;;26.40
35582;BMP180;21687;48.900;9.188;2023-10-13T13:04:10;98061.00;;;26.40
35582;BMP180;21687;48.900;9.188;2023-10-13T13:06:59;98052.00;;;26.50
35582;BMP180;21687;48.900;9.188;2023-10-13T13:09:26;98046.00;;;26.50
35582;BMP180;21687;48.900;9.188;2023-10-13T13:11:56;98044.00;;;26.60
35582;BMP180;21687;48.900;9.188;2023-10-13T13:14:26;98037.00;;;26.80
35582;BMP180;21687;48.900;9.188;2023-10-13T13:16:57;98045.00;;;27.00
35582;BMP180;21687;48.900;9.188;2023-10-13T13:19:37;98040.00;;;27.00
35582;BMP180;21687;48.900;9.188;2023-10-13T13:22:08;98045.00;;;27.10
35582;BMP180;21687;48.900;9.188;2023-10-13T13:24:44;98038.00;;;27.10
35582;BMP180;21687;48.900;9.188;2023-10-13T13:27:12;98028.00;;;27.10
35582;BMP180;21687;48.900;9.188;2023-10-13T13:29:43;98032.00;;;27.20
35582;BMP180;21687;48.900;9.188;2023-10-13T13:32:10;98023.00;;;27.10
35582;BMP180;21687;48.900;9.188;2023-10-13T13:34:50;98017.00;;;27.00
35582;BMP180;21687;48.900;9.188;2023-10-13T13:37:40;98011.00;;;27.00
35582;BMP180;21687;48.900;9.188;2023-10-13T13:40:09;98006.00;;;27.00
35582;BMP180;21687;48.900;9.188;2023-10-13T13:42:45;98003.00;;;27.00
35582;BMP180;21687;48.900;9.188;2023-10-13T13:45:19;97997.00;;;27.00
35582;BMP180;21687;48.900;9.188;2023-10-13T13:47:54;97988.00;;;26.90
35582;BMP180;21687;48.900;9.188;2023-10-13T13:50:22;97986.00;;;26.90
35582;BMP180;21687;48.900;9.188;2023-10-13T13:52:54;97989.00;;;26.90
35582;BMP180;21687;48.900;9.188;2023-10-13T13:55:24;97981.00;;;27.00
35582;BMP180;21687;48.900;9.188;2023-10-13T13:57:52;97974.00;;;27.00
35582;BMP180;21687;48.900;9.188;2023-10-13T14:00:18;97966.00;;;27.00
35582;BMP180;21687;48.900;9.188;2023-10-13T14:03:08;97963.00;;;27.00
35582;BMP180;21687;48.900;9.188;2023-10-13T14:05:42;97965.00;;;27.00
35582;BMP180;21687;48.900;9.188;2023-10-13T14:08:09;97959.00;;;27.00
35582;BMP180;21687;48.900;9.188;2023-10-13T14:10:41;97961.00;;;27.00
35582;BMP180;21687;48.900;9.188;2023-10-13T14:13:26;97955.00;;;26.90
35582;BMP180;21687;48.900;9.188;2023-10-13T14:16:11;97956.00;;;27.00
35582;BMP180;21687;48.900;9.188;2023-10-13T14:18:49;97951.00;;;26.90
35582;BMP180;21687;48.900;9.188;2023-10-13T14:21:17;97954.00;;;26.90
35582;BMP180;21687;48.900;9.188;2023-10-13T14:23:47;97950.00;;;26.90
35582;BMP180;21687;48.900;9.188;2023-10-13T14:26:15;97953.00;;;26.90
35582;BMP180;21687;48.900;9.188;2023-10-13T14:28:49;97945.00;;;26.90
35582;BMP180;21687;48.900;9.188;2023-10-13T14:31:18;97938.00;;;26.90
35582;BMP180;21687;48.900;9.188;2023-10-13T14:33:46;97939.00;;;26.90
35582;BMP180;21687;48.900;9.188;2023-10-13T14:36:13;97934.00;;;26.80
35582;BMP180;21687;48.900;9.188;2023-10-13T14:38:41;97939.00;;;26.80
35582;BMP180;21687;48.900;9.188;2023-10-13T14:41:10;97944.00;;;26.80
35582;BMP180;21687;48.900;9.188;2023-10-13T14:43:36;97932.00;;;26.80
35582;BMP180;21687;48.900;9.188;2023-10-13T14:46:08;97925.00;;;26.70
35582;BMP180;21687;48.900;9.188;2023-10-13T14:48:35;97931.00;;;26.70
35582;BMP180;21687;48.900;9.188;2023-10-13T14:51:08;97935.00;;;26.70
35582;BMP180;21687;48.900;9.188;2023-10-13T14:53:34;97933.00;;;26.70
35582;BMP180;21687;48.900;9.188;2023-10-13T14:56:01;97929.00;;;26.60
35582;BMP180;21687;48.900;9.188;2023-10-13T14:58:31;97924.00;;;26.60
35582;BMP180;21687;48.900;9.188;2023-10-13T15:00:57;97930.00;;;26.60
35582;BMP180;21687;48.900;9.188;2023-10-13T15:03:26;97932.00;;;26.50
35582;BMP180;21687;48.900;9.188;2023-10-13T15:05:54;97924.00;;;26.50
35582;BMP180;21687;48.900;9.188;2023-10-13T15:08:21;97924.00;;;26.40